sensor_id;sensor_type;location;lat;lon;timestamp;P1;durP1;ratioP1;P2;durP2;ratioP2
33840;SDS011;20142;28.494;-16.312;2023-01-28T00:01:28;16.65;;;1.95;;
33840;SDS011;20142;28.494;-16.312;2023-01-28T00:06:30;14.50;;;2.50;;
33840;SDS011;20142;28.494;-16.312;2023-01-28T00:11:32;14.70;;;1.90;;
33840;SDS011;20142;28.494;-16.312;2023-01-28T00:16:33;13.73;;;1.30;;
33840;SDS011;20142;28.494;-16.312;2023-01-28T00:21:35;15.82;;;1.85;;
33840;SDS011;20142;28.494;-16.312;2023-01-28T00:26:37;9.10;;;1.30;;
33840;SDS011;20142;28.494;-16.312;2023-01-28T00:31:39;9.38;;;1.50;;
33840;SDS011;20142;28.494;-16.312;2023-01-28T00:36:40;12.95;;;1.70;;
33840;SDS011;20142;28.494;-16.312;2023-01-28T00:41:42;16.88;;;2.20;;
33840;SDS011;20142;28.494;-16.312;2023-01-28T00:46:44;12.70;;;2.47;;
33840;SDS011;20142;28.494;-16.312;2023-01-28T00:51:46;23.60;;;2.55;;
33840;SDS011;20142;28.494;-16.312;2023-01-28T00:56:48;18.55;;;1.95;;
33840;SDS011;20142;28.494;-16.312;2023-01-28T01:01:50;23.83;;;3.38;;
33840;SDS011;20142;28.494;-16.312;2023-01-28T01:06:51;29.35;;;3.47;;
33840;SDS011;20142;28.494;-16.312;2023-01-28T01:11:53;23.80;;;2.95;;
33840;SDS011;20142;28.494;-16.312;2023-01-28T01:16:55;33.58;;;3.17;;
33840;SDS011;20142;28.494;-16.312;2023-01-28T01:21:56;28.33;;;4.05;;
33840;SDS011;20142;28.494;-16.312;2023-01-28T01:26:58;30.75;;;3.80;;
33840;SDS011;20142;28.494;-16.312;2023-01-28T01:32:00;31.58;;;3.17;;
33840;SDS011;20142;28.494;-16.312;2023-01-28T01:37:02;26.85;;;4.10;;
33840;SDS011;20142;28.494;-16.312;2023-01-28T01:42:08;27.38;;;3.50;;
33840;SDS011;20142;28.494;-16.312;2023-01-28T01:47:14;23.67;;;2.80;;
33840;SDS011;20142;28.494;-16.312;2023-01-28T01:52:19;27.15;;;4.20;;
33840;SDS011;20142;28.494;-16.312;2023-01-28T01:57:30;21.70;;;3.40;;
33840;SDS011;20142;28.494;-16.312;2023-01-28T02:02:36;25.45;;;3.55;;
33840;SDS011;20142;28.494;-16.312;2023-01-28T02:07:42;21.15;;;3.22;;
33840;SDS011;20142;28.494;-16.312;2023-01-28T02:12:47;22.27;;;2.45;;
33840;SDS011;20142;28.494;-16.312;2023-01-28T02:17:54;22.98;;;2.75;;
33840;SDS011;20142;28.494;-16.312;2023-01-28T02:39:34;17.88;;;2.42;;
33840;SDS011;20142;28.494;-16.312;2023-01-28T02:44:48;17.98;;;2.80;;
33840;SDS011;20142;28.494;-16.312;2023-01-28T02:49:50;22.63;;;2.08;;
33840;SDS011;20142;28.494;-16.312;2023-01-28T02:55:31;18.27;;;2.60;;
33840;SDS011;20142;28.494;-16.312;2023-01-28T03:00:55;18.50;;;2.33;;
33840;SDS011;20142;28.494;-16.312;2023-01-28T03:06:07;11.93;;;1.92;;
33840;SDS011;20142;28.494;-16.312;2023-01-28T03:11:15;18.70;;;2.85;;
33840;SDS011;20142;28.494;-16.312;2023-01-28T03:16:36;16.65;;;2.15;;
33840;SDS011;20142;28.494;-16.312;2023-01-28T03:21:56;13.82;;;2.63;;
33840;SDS011;20142;28.494;-16.312;2023-01-28T03:32:40;18.42;;;2.00;;
33840;SDS011;20142;28.494;-16.312;2023-01-28T03:38:01;16.65;;;1.88;;
33840;SDS011;20142;28.494;-16.312;2023-01-28T03:43:17;14.25;;;2.00;;
33840;SDS011;20142;28.494;-16.312;2023-01-28T03:48:19;17.75;;;2.13;;
33840;SDS011;20142;28.494;-16.312;2023-01-28T03:53:24;13.45;;;1.90;;
33840;SDS011;20142;28.494;-16.312;2023-01-28T03:58:27;15.38;;;1.73;;
33840;SDS011;20142;28.494;-16.312;2023-01-28T04:03:48;14.90;;;2.25;;
33840;SDS011;20142;28.494;-16.312;2023-01-28T04:08:49;14.50;;;2.10;;
33840;SDS011;20142;28.494;-16.312;2023-01-28T04:13:58;14.85;;;2.22;;
33840;SDS011;20142;28.494;-16.312;2023-01-28T04:19:00;20.98;;;2.13;;
33840;SDS011;20142;28.494;-16.312;2023-01-28T04:24:02;13.68;;;2.10;;
33840;SDS011;20142;28.494;-16.312;2023-01-28T04:29:04;13.88;;;2.17;;
33840;SDS011;20142;28.494;-16.312;2023-01-28T04:34:06;14.05;;;2.10;;
33840;SDS011;20142;28.494;-16.312;2023-01-28T04:39:08;13.98;;;1.65;;
33840;SDS011;20142;28.494;-16.312;2023-01-28T04:44:10;14.48;;;1.70;;
33840;SDS011;20142;28.494;-16.312;2023-01-28T04:49:13;14.82;;;2.08;;
33840;SDS011;20142;28.494;-16.312;2023-01-28T04:54:14;11.18;;;1.50;;
33840;SDS011;20142;28.494;-16.312;2023-01-28T04:59:16;9.98;;;1.50;;
33840;SDS011;20142;28.494;-16.312;2023-01-28T05:04:19;15.05;;;2.33;;
33840;SDS011;20142;28.494;-16.312;2023-01-28T05:09:21;22.38;;;2.33;;
33840;SDS011;20142;28.494;-16.312;2023-01-28T05:14:22;15.05;;;1.65;;
33840;SDS011;20142;28.494;-16.312;2023-01-28T05:19:24;16.38;;;1.77;;
33840;SDS011;20142;28.494;-16.312;2023-01-28T05:24:26;17.58;;;2.45;;
33840;SDS011;20142;28.494;-16.312;2023-01-28T05:29:27;12.25;;;2.08;;
33840;SDS011;20142;28.494;-16.312;2023-01-28T05:34:29;11.80;;;1.50;;
33840;SDS011;20142;28.494;-16.312;2023-01-28T05:39:31;9.93;;;1.73;;
33840;SDS011;20142;28.494;-16.312;2023-01-28T05:44:32;12.15;;;1.45;;
33840;SDS011;20142;28.494;-16.312;2023-01-28T05:49:34;10.45;;;1.20;;
33840;SDS011;20142;28.494;-16.312;2023-01-28T05:54:35;16.92;;;2.17;;
33840;SDS011;20142;28.494;-16.312;2023-01-28T05:59:37;14.60;;;1.73;;
33840;SDS011;20142;28.494;-16.312;2023-01-28T06:04:39;22.33;;;2.20;;
33840;SDS011;20142;28.494;-16.312;2023-01-28T06:09:40;16.67;;;2.15;;
33840;SDS011;20142;28.494;-16.312;2023-01-28T06:14:42;19.25;;;2.05;;
33840;SDS011;20142;28.494;-16.312;2023-01-28T06:19:44;16.15;;;1.90;;
33840;SDS011;20142;28.494;-16.312;2023-01-28T06:24:45;23.00;;;2.22;;
33840;SDS011;20142;28.494;-16.312;2023-01-28T06:29:47;22.48;;;2.35;;
33840;SDS011;20142;28.494;-16.312;2023-01-28T06:34:49;18.50;;;1.95;;
33840;SDS011;20142;28.494;-16.312;2023-01-28T06:39:52;16.05;;;1.75;;
33840;SDS011;20142;28.494;-16.312;2023-01-28T06:44:53;17.60;;;1.98;;
33840;SDS011;20142;28.494;-16.312;2023-01-28T06:49:55;17.13;;;2.10;;
33840;SDS011;20142;28.494;-16.312;2023-01-28T06:54:56;13.65;;;2.10;;
33840;SDS011;20142;28.494;-16.312;2023-01-28T06:59:58;14.82;;;1.70;;
33840;SDS011;20142;28.494;-16.312;2023-01-28T07:05:00;17.40;;;2.45;;
33840;SDS011;20142;28.494;-16.312;2023-01-28T07:10:02;18.45;;;2.47;;
33840;SDS011;20142;28.494;-16.312;2023-01-28T07:15:05;15.38;;;1.98;;
33840;SDS011;20142;28.494;-16.312;2023-01-28T07:20:08;13.80;;;2.22;;
33840;SDS011;20142;28.494;-16.312;2023-01-28T07:25:15;18.23;;;2.22;;
33840;SDS011;20142;28.494;-16.312;2023-01-28T07:30:17;19.85;;;2.47;;
33840;SDS011;20142;28.494;-16.312;2023-01-28T07:35:21;14.13;;;2.53;;
33840;SDS011;20142;28.494;-16.312;2023-01-28T07:40:24;22.65;;;2.70;;
33840;SDS011;20142;28.494;-16.312;2023-01-28T07:45:27;17.35;;;3.08;;
33840;SDS011;20142;28.494;-16.312;2023-01-28T07:50:30;13.70;;;1.92;;
33840;SDS011;20142;28.494;-16.312;2023-01-28T07:55:35;10.55;;;1.70;;
33840;SDS011;20142;28.494;-16.312;2023-01-28T08:00:38;11.20;;;1.52;;
33840;SDS011;20142;28.494;-16.312;2023-01-28T08:05:41;9.55;;;1.98;;
33840;SDS011;20142;28.494;-16.312;2023-01-28T08:10:48;17.25;;;1.60;;
33840;SDS011;20142;28.494;-16.312;2023-01-28T08:15:53;7.15;;;1.25;;
33840;SDS011;20142;28.494;-16.312;2023-01-28T08:20:57;9.73;;;1.67;;
33840;SDS011;20142;28.494;-16.312;2023-01-28T08:25:59;18.23;;;1.88;;
33840;SDS011;20142;28.494;-16.312;2023-01-28T08:31:01;13.93;;;1.80;;
33840;SDS011;20142;28.494;-16.312;2023-01-28T08:36:03;9.82;;;1.45;;
33840;SDS011;20142;28.494;-16.312;2023-01-28T08:41:05;16.52;;;1.42;;
33840;SDS011;20142;28.494;-16.312;2023-01-28T08:46:07;14.48;;;1.92;;
33840;SDS011;20142;28.494;-16.312;2023-01-28T08:51:09;12.70;;;1.73;;
33840;SDS011;20142;28.494;-16.312;2023-01-28T08:56:10;16.02;;;1.75;;
33840;SDS011;20142;28.494;-16.312;2023-01-28T09:01:12;17.55;;;2.17;;
33840;SDS011;20142;28.494;-16.312;2023-01-28T09:06:14;12.77;;;1.65;;
33840;SDS011;20142;28.494;-16.312;2023-01-28T09:11:15;7.60;;;1.25;;
33840;SDS011;20142;28.494;-16.312;2023-01-28T09:16:17;16.23;;;2.22;;
33840;SDS011;20142;28.494;-16.312;2023-01-28T09:21:19;10.27;;;1.60;;
33840;SDS011;20142;28.494;-16.312;2023-01-28T09:26:21;15.35;;;2.03;;
33840;SDS011;20142;28.494;-16.312;2023-01-28T09:31:22;10.55;;;1.50;;
33840;SDS011;20142;28.494;-16.312;2023-01-28T09:36:25;16.42;;;2.00;;
33840;SDS011;20142;28.494;-16.312;2023-01-28T09:47:09;12.57;;;1.60;;
33840;SDS011;20142;28.494;-16.312;2023-01-28T09:52:23;11.75;;;1.58;;
33840;SDS011;20142;28.494;-16.312;2023-01-28T09:57:40;12.13;;;1.63;;
33840;SDS011;20142;28.494;-16.312;2023-01-28T10:18:45;10.95;;;1.35;;
33840;SDS011;20142;28.494;-16.312;2023-01-28T10:23:58;15.27;;;1.50;;
33840;SDS011;20142;28.494;-16.312;2023-01-28T10:29:28;11.40;;;1.30;;
33840;SDS011;20142;28.494;-16.312;2023-01-28T10:34:34;11.35;;;1.73;;
33840;SDS011;20142;28.494;-16.312;2023-01-28T10:39:37;11.15;;;1.63;;
33840;SDS011;20142;28.494;-16.312;2023-01-28T10:44:39;8.07;;;1.52;;
33840;SDS011;20142;28.494;-16.312;2023-01-28T10:49:45;8.73;;;1.15;;
33840;SDS011;20142;28.494;-16.312;2023-01-28T10:55:03;13.03;;;1.50;;
33840;SDS011;20142;28.494;-16.312;2023-01-28T11:00:25;3.40;;;0.60;;
33840;SDS011;20142;28.494;-16.312;2023-01-28T11:05:34;10.05;;;1.13;;
33840;SDS011;20142;28.494;-16.312;2023-01-28T11:10:36;12.02;;;1.60;;
33840;SDS011;20142;28.494;-16.312;2023-01-28T11:15:45;6.68;;;0.73;;
33840;SDS011;20142;28.494;-16.312;2023-01-28T11:20:56;8.80;;;1.23;;
33840;SDS011;20142;28.494;-16.312;2023-01-28T11:26:08;15.05;;;1.23;;
33840;SDS011;20142;28.494;-16.312;2023-01-28T11:31:29;7.82;;;0.82;;
33840;SDS011;20142;28.494;-16.312;2023-01-28T11:36:49;10.25;;;1.10;;
33840;SDS011;20142;28.494;-16.312;2023-01-28T11:42:17;9.43;;;1.23;;
33840;SDS011;20142;28.494;-16.312;2023-01-28T12:20:09;5.80;;;0.90;;
33840;SDS011;20142;28.494;-16.312;2023-01-28T12:25:34;13.68;;;1.02;;
33840;SDS011;20142;28.494;-16.312;2023-01-28T12:31:20;9.07;;;1.40;;
33840;SDS011;20142;28.494;-16.312;2023-01-28T12:42:09;11.40;;;1.67;;
33840;SDS011;20142;28.494;-16.312;2023-01-28T12:47:18;12.52;;;1.40;;
33840;SDS011;20142;28.494;-16.312;2023-01-28T12:52:33;9.52;;;1.40;;
33840;SDS011;20142;28.494;-16.312;2023-01-28T12:57:44;10.63;;;1.60;;
33840;SDS011;20142;28.494;-16.312;2023-01-28T13:02:54;8.23;;;1.55;;
33840;SDS011;20142;28.494;-16.312;2023-01-28T13:08:24;5.25;;;0.82;;
33840;SDS011;20142;28.494;-16.312;2023-01-28T13:13:31;7.25;;;0.98;;
33840;SDS011;20142;28.494;-16.312;2023-01-28T13:23:46;8.98;;;1.13;;
33840;SDS011;20142;28.494;-16.312;2023-01-28T13:28:50;6.00;;;0.95;;
33840;SDS011;20142;28.494;-16.312;2023-01-28T13:39:05;11.75;;;1.70;;
33840;SDS011;20142;28.494;-16.312;2023-01-28T13:44:32;7.85;;;1.20;;
33840;SDS011;20142;28.494;-16.312;2023-01-28T14:21:52;3.88;;;0.50;;
33840;SDS011;20142;28.494;-16.312;2023-01-28T14:32:18;5.32;;;0.90;;
33840;SDS011;20142;28.494;-16.312;2023-01-28T14:37:30;10.88;;;0.98;;
33840;SDS011;20142;28.494;-16.312;2023-01-28T14:42:36;2.58;;;0.77;;
33840;SDS011;20142;28.494;-16.312;2023-01-28T14:47:45;3.67;;;0.47;;
33840;SDS011;20142;28.494;-16.312;2023-01-28T14:58:46;18.80;;;2.50;;
33840;SDS011;20142;28.494;-16.312;2023-01-28T15:03:53;18.33;;;1.70;;
33840;SDS011;20142;28.494;-16.312;2023-01-28T15:09:04;12.88;;;1.52;;
33840;SDS011;20142;28.494;-16.312;2023-01-28T15:14:20;9.43;;;1.40;;
33840;SDS011;20142;28.494;-16.312;2023-01-28T15:24:35;10.32;;;2.17;;
33840;SDS011;20142;28.494;-16.312;2023-01-28T15:29:49;9.45;;;1.50;;
33840;SDS011;20142;28.494;-16.312;2023-01-28T15:34:54;13.65;;;2.17;;
33840;SDS011;20142;28.494;-16.312;2023-01-28T15:39:59;8.32;;;1.63;;
33840;SDS011;20142;28.494;-16.312;2023-01-28T15:45:13;10.43;;;1.60;;
33840;SDS011;20142;28.494;-16.312;2023-01-28T15:50:20;13.82;;;1.92;;
33840;SDS011;20142;28.494;-16.312;2023-01-28T15:55:29;14.60;;;1.70;;
33840;SDS011;20142;28.494;-16.312;2023-01-28T16:00:40;11.18;;;1.92;;
33840;SDS011;20142;28.494;-16.312;2023-01-28T16:05:42;15.25;;;2.33;;
33840;SDS011;20142;28.494;-16.312;2023-01-28T16:11:00;12.98;;;2.20;;
33840;SDS011;20142;28.494;-16.312;2023-01-28T16:16:02;16.27;;;2.72;;
33840;SDS011;20142;28.494;-16.312;2023-01-28T16:21:06;16.85;;;2.60;;
33840;SDS011;20142;28.494;-16.312;2023-01-28T16:26:24;19.63;;;2.85;;
33840;SDS011;20142;28.494;-16.312;2023-01-28T16:31:28;13.27;;;2.50;;
33840;SDS011;20142;28.494;-16.312;2023-01-28T16:36:30;15.05;;;2.30;;
33840;SDS011;20142;28.494;-16.312;2023-01-28T16:41:32;17.38;;;2.00;;
33840;SDS011;20142;28.494;-16.312;2023-01-28T16:46:40;17.17;;;2.40;;
33840;SDS011;20142;28.494;-16.312;2023-01-28T16:51:42;17.55;;;2.78;;
33840;SDS011;20142;28.494;-16.312;2023-01-28T16:56:44;22.80;;;2.78;;
33840;SDS011;20142;28.494;-16.312;2023-01-28T17:01:46;19.08;;;3.00;;
33840;SDS011;20142;28.494;-16.312;2023-01-28T17:06:48;13.00;;;1.95;;
33840;SDS011;20142;28.494;-16.312;2023-01-28T17:11:50;9.43;;;1.65;;
33840;SDS011;20142;28.494;-16.312;2023-01-28T17:16:51;15.52;;;2.05;;
33840;SDS011;20142;28.494;-16.312;2023-01-28T17:21:53;11.13;;;3.72;;
33840;SDS011;20142;28.494;-16.312;2023-01-28T17:26:54;18.70;;;3.42;;
33840;SDS011;20142;28.494;-16.312;2023-01-28T17:31:56;14.18;;;2.03;;
33840;SDS011;20142;28.494;-16.312;2023-01-28T17:36:58;7.47;;;1.65;;
33840;SDS011;20142;28.494;-16.312;2023-01-28T17:42:00;12.98;;;1.80;;
33840;SDS011;20142;28.494;-16.312;2023-01-28T17:47:02;12.18;;;1.40;;
33840;SDS011;20142;28.494;-16.312;2023-01-28T17:52:03;14.15;;;1.77;;
33840;SDS011;20142;28.494;-16.312;2023-01-28T17:57:05;13.13;;;2.08;;
33840;SDS011;20142;28.494;-16.312;2023-01-28T18:02:09;11.45;;;1.70;;
33840;SDS011;20142;28.494;-16.312;2023-01-28T18:07:12;15.55;;;2.15;;
33840;SDS011;20142;28.494;-16.312;2023-01-28T18:12:14;11.30;;;2.42;;
33840;SDS011;20142;28.494;-16.312;2023-01-28T18:17:16;16.35;;;2.40;;
33840;SDS011;20142;28.494;-16.312;2023-01-28T18:22:18;13.85;;;2.08;;
33840;SDS011;20142;28.494;-16.312;2023-01-28T18:27:19;12.55;;;3.05;;
33840;SDS011;20142;28.494;-16.312;2023-01-28T18:32:22;9.85;;;1.65;;
33840;SDS011;20142;28.494;-16.312;2023-01-28T18:37:24;12.93;;;1.80;;
33840;SDS011;20142;28.494;-16.312;2023-01-28T18:42:26;14.73;;;3.03;;
33840;SDS011;20142;28.494;-16.312;2023-01-28T18:47:28;11.45;;;2.22;;
33840;SDS011;20142;28.494;-16.312;2023-01-28T18:52:29;12.65;;;1.80;;
33840;SDS011;20142;28.494;-16.312;2023-01-28T18:57:31;11.45;;;1.67;;
33840;SDS011;20142;28.494;-16.312;2023-01-28T19:02:33;6.78;;;1.20;;
33840;SDS011;20142;28.494;-16.312;2023-01-28T19:07:34;8.82;;;1.35;;
33840;SDS011;20142;28.494;-16.312;2023-01-28T19:12:36;12.02;;;1.70;;
33840;SDS011;20142;28.494;-16.312;2023-01-28T19:17:38;7.95;;;1.27;;
33840;SDS011;20142;28.494;-16.312;2023-01-28T19:22:39;12.73;;;1.55;;
33840;SDS011;20142;28.494;-16.312;2023-01-28T19:27:41;7.45;;;1.02;;
33840;SDS011;20142;28.494;-16.312;2023-01-28T19:32:43;10.15;;;1.80;;
33840;SDS011;20142;28.494;-16.312;2023-01-28T19:37:44;11.07;;;2.30;;
33840;SDS011;20142;28.494;-16.312;2023-01-28T19:42:46;10.13;;;1.67;;
33840;SDS011;20142;28.494;-16.312;2023-01-28T19:47:52;12.30;;;2.10;;
33840;SDS011;20142;28.494;-16.312;2023-01-28T19:52:54;6.80;;;1.35;;
33840;SDS011;20142;28.494;-16.312;2023-01-28T19:57:56;9.02;;;2.60;;
